Time;durP1;ratioP1;P1;durP2;ratioP2;P2;SDS_P1;SDS_P2;PMS_P1;PMS_P2;Temp;Humidity;BMP_temperature;BMP_pressure;BME280_temperature;BME280_humidity;BME280_pressure;Samples;Min_cycle;Max_cycle;Signal;HPM_P1;HPM_P2
2023/10/26 00:00:27;;;;;;;1.42;0.90;;;12.40;99.90;;;;;;5024060;28;20029;-91
2023/10/26 00:02:57;;;;;;;1.25;0.80;;;12.40;99.90;;;;;;5046591;28;20025;-92
2023/10/26 00:05:24;;;;;;;0.95;0.85;;;12.30;99.90;;;;;;5036161;28;20018;-90
2023/10/26 00:07:50;;;;;;;2.05;1.17;;;12.40;99.90;;;;;;5046009;28;20045;-92
2023/10/26 00:10:15;;;;;;;2.28;0.60;;;12.40;99.90;;;;;;5033361;28;20029;-92
2023/10/26 00:12:41;;;;;;;1.25;0.50;;;12.40;99.90;;;;;;5037156;28;20033;-92
2023/10/26 00:15:08;;;;;;;0.98;0.60;;;12.40;99.90;;;;;;5037593;28;20026;-91
2023/10/26 00:17:34;;;;;;;0.98;0.88;;;12.40;99.90;;;;;;5029315;28;20044;-92
2023/10/26 00:19:59;;;;;;;0.82;0.82;;;12.30;99.90;;;;;;5037261;28;20022;-90
2023/10/26 00:22:25;;;;;;;0.85;0.77;;;12.20;99.90;;;;;;5050308;28;20052;-92
2023/10/26 00:24:51;;;;;;;0.90;0.55;;;12.20;99.90;;;;;;5034740;28;20072;-90
2023/10/26 00:27:17;;;;;;;1.27;0.80;;;12.20;99.90;;;;;;5034912;28;20035;-91
2023/10/26 00:29:43;;;;;;;1.80;1.02;;;12.10;99.90;;;;;;5051937;28;20029;-91
2023/10/26 00:32:09;;;;;;;1.15;1.05;;;12.20;99.90;;;;;;5037581;28;20030;-91
2023/10/26 00:34:35;;;;;;;1.13;0.73;;;12.20;99.90;;;;;;5038121;28;20025;-92
2023/10/26 00:37:01;;;;;;;0.88;0.63;;;12.20;99.90;;;;;;5040604;28;20488;-94
2023/10/26 00:39:27;;;;;;;0.75;0.63;;;12.20;99.90;;;;;;5032668;28;20025;-91
2023/10/26 00:41:54;;;;;;;0.93;0.60;;;12.20;99.90;;;;;;5042269;28;20044;-92
2023/10/26 00:44:21;;;;;;;1.52;0.68;;;12.20;99.90;;;;;;5042857;28;20033;-91
2023/10/26 00:46:51;;;;;;;0.75;0.70;;;12.10;99.90;;;;;;5043644;28;20025;-89
2023/10/26 00:49:18;;;;;;;0.98;0.88;;;12.10;99.90;;;;;;5042026;28;20057;-92
2023/10/26 00:51:58;;;;;;;2.90;1.40;;;12.00;99.90;;;;;;5036369;28;20033;-93
2023/10/26 00:54:26;;;;;;;2.63;0.70;;;11.90;99.90;;;;;;5056179;28;20052;-91
2023/10/26 00:56:52;;;;;;;1.60;1.05;;;11.70;99.90;;;;;;5035379;28;20030;-91
2023/10/26 00:59:19;;;;;;;2.97;1.23;;;11.70;99.90;;;;;;5021523;28;20022;-91
2023/10/26 01:01:47;;;;;;;1.50;0.63;;;11.60;99.90;;;;;;5050377;28;20025;-91
2023/10/26 01:04:14;;;;;;;2.05;0.82;;;11.60;99.90;;;;;;5041900;28;20562;-92
2023/10/26 01:06:43;;;;;;;0.80;0.80;;;11.50;99.90;;;;;;5041242;28;20491;-92
2023/10/26 01:09:09;;;;;;;1.45;0.80;;;11.50;99.90;;;;;;5041712;28;20435;-93
2023/10/26 01:11:37;;;;;;;0.98;0.85;;;11.60;99.90;;;;;;5056852;28;20033;-92
2023/10/26 01:14:06;;;;;;;1.90;0.88;;;11.50;99.90;;;;;;5057453;28;20071;-91
2023/10/26 01:16:32;;;;;;;1.33;0.70;;;11.60;99.90;;;;;;5031616;28;20028;-91
2023/10/26 01:18:59;;;;;;;1.98;0.73;;;11.60;99.90;;;;;;5039513;28;20025;-90
2023/10/26 01:21:26;;;;;;;1.42;0.73;;;11.60;99.90;;;;;;5039852;28;20470;-91
2023/10/26 01:23:52;;;;;;;1.27;1.15;;;11.60;99.90;;;;;;5026009;28;20109;-91
2023/10/26 01:26:18;;;;;;;1.05;0.90;;;11.60;99.90;;;;;;5038118;28;20060;-92
2023/10/26 01:28:43;;;;;;;2.15;0.82;;;11.60;99.90;;;;;;5055583;28;20641;-91
2023/10/26 01:31:09;;;;;;;1.27;1.17;;;11.60;99.90;;;;;;5039582;28;20049;-91
2023/10/26 01:33:34;;;;;;;2.33;1.20;;;11.60;99.90;;;;;;5039795;28;20713;-91
2023/10/26 01:36:00;;;;;;;1.52;1.42;;;11.60;99.90;;;;;;5040721;28;20025;-92
2023/10/26 01:38:26;;;;;;;1.35;0.90;;;11.70;99.90;;;;;;5039769;28;20097;-92
2023/10/26 01:40:52;;;;;;;1.50;1.23;;;11.70;99.90;;;;;;5033816;28;20017;-93
2023/10/26 01:43:18;;;;;;;1.13;0.82;;;11.70;99.90;;;;;;5019876;28;20025;-91
2023/10/26 01:45:44;;;;;;;1.48;1.00;;;11.70;99.90;;;;;;5034194;28;20048;-91
2023/10/26 01:48:10;;;;;;;1.10;0.93;;;11.80;99.90;;;;;;5055087;28;20033;-91
2023/10/26 01:50:35;;;;;;;1.75;0.90;;;11.70;99.90;;;;;;5041022;28;20021;-91
2023/10/26 01:53:01;;;;;;;1.75;1.15;;;11.70;99.90;;;;;;5054426;28;20112;-92
2023/10/26 01:55:27;;;;;;;4.75;1.35;;;11.70;99.90;;;;;;5040577;28;20120;-91
2023/10/26 01:57:52;;;;;;;1.00;0.80;;;11.70;99.90;;;;;;5046774;28;20070;-92
2023/10/26 02:00:18;;;;;;;1.00;0.88;;;11.70;99.90;;;;;;5041039;28;20022;-92
2023/10/26 02:02:46;;;;;;;2.45;1.30;;;11.70;99.90;;;;;;5031667;28;20017;-92
2023/10/26 02:05:13;;;;;;;;;;;11.70;99.90;;;;;;5041162;28;20017;-91
2023/10/26 02:07:38;;;;;;;1.35;1.25;;;11.70;99.90;;;;;;5040075;28;19976;-89
2023/10/26 02:10:04;;;;;;;2.67;1.70;;;11.70;99.90;;;;;;5040088;28;20432;-91
2023/10/26 02:12:30;;;;;;;1.25;1.15;;;11.70;99.90;;;;;;5040183;28;20022;-92
2023/10/26 02:14:56;;;;;;;2.13;1.23;;;11.70;99.90;;;;;;5040514;28;20018;-93
2023/10/26 02:17:21;;;;;;;1.35;1.08;;;11.70;99.90;;;;;;5039015;28;20029;-92
2023/10/26 02:19:47;;;;;;;4.47;1.65;;;11.70;99.90;;;;;;5038592;28;20029;-91
2023/10/26 02:22:14;;;;;;;2.40;0.90;;;11.70;99.90;;;;;;5021776;28;20072;-90
2023/10/26 02:24:41;;;;;;;1.35;1.15;;;11.70;99.90;;;;;;5025936;28;20045;-92
2023/10/26 02:27:07;;;;;;;1.70;1.00;;;11.80;99.90;;;;;;5027456;28;20025;-94
2023/10/26 02:29:33;;;;;;;1.50;1.17;;;11.70;99.90;;;;;;5029784;28;20032;-90
2023/10/26 02:31:59;;;;;;;2.90;0.80;;;11.80;99.90;;;;;;5036876;28;20025;-91
2023/10/26 02:34:24;;;;;;;2.30;0.90;;;11.80;99.90;;;;;;5028040;28;20072;-91
2023/10/26 02:36:50;;;;;;;1.70;0.93;;;11.70;99.90;;;;;;5038220;28;20141;-91
2023/10/26 02:39:16;;;;;;;1.85;0.93;;;11.70;99.90;;;;;;5036731;28;20022;-91
2023/10/26 02:41:42;;;;;;;1.45;1.05;;;11.70;99.90;;;;;;5031834;28;20018;-91
2023/10/26 02:44:07;;;;;;;2.63;1.33;;;11.70;99.90;;;;;;5038765;28;20006;-90
2023/10/26 02:46:33;;;;;;;1.45;1.35;;;11.70;99.90;;;;;;5053991;28;20044;-91
2023/10/26 02:48:58;;;;;;;1.73;0.82;;;11.60;99.90;;;;;;5038959;28;20079;-91
2023/10/26 02:51:24;;;;;;;3.53;1.38;;;11.60;99.90;;;;;;5034763;28;20025;-90
2023/10/26 02:53:50;;;;;;;1.65;0.80;;;11.60;99.90;;;;;;5025617;28;20357;-90
2023/10/26 02:56:15;;;;;;;0.95;0.88;;;11.60;99.90;;;;;;5038701;28;20017;-92
2023/10/26 02:58:41;;;;;;;1.25;0.88;;;11.60;99.90;;;;;;5028103;28;20052;-90
2023/10/26 03:01:07;;;;;;;1.02;0.90;;;11.60;99.90;;;;;;5038338;28;20096;-93
2023/10/26 03:03:32;;;;;;;4.43;0.98;;;11.60;99.90;;;;;;5031028;28;20014;-92
2023/10/26 03:05:59;;;;;;;1.05;0.98;;;11.60;99.90;;;;;;5037795;28;20018;-91
2023/10/26 03:08:24;;;;;;;1.67;1.33;;;11.60;99.90;;;;;;5036890;28;20035;-91
2023/10/26 03:10:50;;;;;;;1.60;1.00;;;11.60;99.90;;;;;;5053206;28;20026;-91
2023/10/26 03:13:16;;;;;;;2.63;0.93;;;11.50;99.90;;;;;;5037531;28;20025;-92
2023/10/26 03:15:41;;;;;;;1.27;0.95;;;11.50;99.90;;;;;;5030663;28;20441;-91
2023/10/26 03:18:07;;;;;;;1.30;0.70;;;11.50;99.90;;;;;;5033001;28;20051;-92
2023/10/26 03:20:33;;;;;;;1.65;1.30;;;11.50;99.90;;;;;;5033910;28;20021;-91
2023/10/26 03:22:59;;;;;;;1.33;1.13;;;11.50;99.90;;;;;;5032965;28;20383;-91
2023/10/26 03:25:25;;;;;;;2.15;1.00;;;11.40;99.90;;;;;;5028833;28;20020;-89
2023/10/26 03:27:50;;;;;;;1.08;0.98;;;11.40;99.90;;;;;;5037124;28;20035;-91
2023/10/26 03:30:17;;;;;;;2.60;1.20;;;11.40;99.90;;;;;;5038572;28;20478;-91
2023/10/26 03:32:44;;;;;;;2.25;1.17;;;11.40;99.90;;;;;;5032926;28;20022;-92
2023/10/26 03:35:12;;;;;;;1.55;0.80;;;11.40;99.90;;;;;;5034829;28;20021;-92
2023/10/26 03:37:38;;;;;;;1.25;0.93;;;11.40;99.90;;;;;;5039881;28;20025;-89
2023/10/26 03:40:07;;;;;;;1.45;1.35;;;11.40;99.90;;;;;;5038655;28;20118;-92
2023/10/26 03:42:33;;;;;;;4.80;0.95;;;11.40;99.90;;;;;;5017911;28;20025;-90
2023/10/26 03:45:00;;;;;;;1.80;1.00;;;11.30;99.90;;;;;;5025419;28;20025;-93
2023/10/26 03:47:26;;;;;;;3.50;2.50;;;11.30;99.90;;;;;;5037951;28;20033;-91
2023/10/26 03:49:52;;;;;;;1.95;1.33;;;11.30;99.90;;;;;;5039540;28;20021;-92
2023/10/26 03:52:21;;;;;;;2.33;1.00;;;11.30;99.90;;;;;;5037927;28;20116;-94
2023/10/26 03:54:47;;;;;;;1.60;0.77;;;11.30;99.90;;;;;;5026080;28;20022;-92
2023/10/26 03:57:13;;;;;;;3.08;1.15;;;11.30;99.90;;;;;;5053221;28;20033;-92
2023/10/26 03:59:38;;;;;;;1.63;1.20;;;11.20;99.90;;;;;;5031693;28;20017;-92
2023/10/26 04:02:04;;;;;;;2.75;1.35;;;11.20;99.90;;;;;;5029541;28;20147;-91
2023/10/26 04:04:30;;;;;;;1.17;0.90;;;11.10;99.90;;;;;;5035781;28;20029;-91
2023/10/26 04:06:56;;;;;;;1.55;1.30;;;11.10;99.90;;;;;;5028888;28;20030;-93
2023/10/26 04:09:22;;;;;;;1.20;1.10;;;11.10;99.90;;;;;;5038189;28;20024;-92
2023/10/26 04:11:48;;;;;;;1.13;1.08;;;11.10;99.90;;;;;;5035229;28;20053;-92
2023/10/26 04:14:14;;;;;;;0.95;0.93;;;11.10;99.90;;;;;;5050401;28;20078;-92
2023/10/26 04:16:39;;;;;;;0.90;0.80;;;11.10;99.90;;;;;;5044567;28;20025;-92
2023/10/26 04:19:06;;;;;;;1.58;1.15;;;11.10;99.90;;;;;;5046253;28;20025;-90
2023/10/26 04:21:31;;;;;;;3.63;1.02;;;11.00;99.90;;;;;;5043286;28;20484;-92
2023/10/26 04:23:58;;;;;;;2.97;1.02;;;11.10;99.90;;;;;;5053652;28;20028;-91
2023/10/26 04:26:23;;;;;;;1.55;1.17;;;11.00;99.90;;;;;;5046408;28;20149;-91
2023/10/26 04:28:49;;;;;;;1.25;0.75;;;11.00;99.90;;;;;;5043778;28;20420;-91
2023/10/26 04:31:15;;;;;;;1.00;0.90;;;10.90;99.90;;;;;;5036321;28;20030;-90
2023/10/26 04:33:41;;;;;;;1.65;0.95;;;11.00;99.90;;;;;;5057061;28;20036;-90
2023/10/26 04:36:07;;;;;;;1.40;1.30;;;10.90;99.90;;;;;;5055910;28;20029;-89
2023/10/26 04:38:34;;;;;;;1.15;1.13;;;10.90;99.90;;;;;;5056692;28;20037;-91
2023/10/26 04:40:59;;;;;;;2.17;1.05;;;10.90;99.90;;;;;;5056783;28;20075;-91
2023/10/26 04:43:26;;;;;;;2.50;1.35;;;10.90;99.90;;;;;;5054803;28;20033;-92
2023/10/26 04:45:52;;;;;;;2.95;1.05;;;10.80;99.90;;;;;;5049198;28;20476;-91
2023/10/26 04:48:17;;;;;;;2.45;0.90;;;10.80;99.90;;;;;;5046542;28;20038;-92
2023/10/26 04:50:43;;;;;;;1.25;0.98;;;10.80;99.90;;;;;;5057113;28;20033;-89
2023/10/26 04:53:09;;;;;;;5.15;1.33;;;10.80;99.90;;;;;;5047853;28;20030;-91
2023/10/26 04:55:35;;;;;;;2.78;0.88;;;10.70;99.90;;;;;;5047442;28;20040;-90
2023/10/26 04:58:02;;;;;;;1.20;1.08;;;10.70;99.90;;;;;;5041903;28;20396;-90
2023/10/26 05:00:27;;;;;;;2.38;1.40;;;10.60;99.90;;;;;;5042670;28;20062;-92
2023/10/26 05:02:53;;;;;;;3.13;1.45;;;10.60;99.90;;;;;;5042635;28;20029;-91
2023/10/26 05:05:19;;;;;;;3.30;1.33;;;10.50;99.90;;;;;;5040415;28;20036;-91
2023/10/26 05:07:45;;;;;;;3.22;1.45;;;10.60;99.90;;;;;;5028354;28;20029;-91
2023/10/26 05:10:11;;;;;;;2.25;1.10;;;10.50;99.90;;;;;;5038624;28;20026;-92
2023/10/26 05:12:37;;;;;;;2.53;1.88;;;10.50;99.90;;;;;;5039081;28;20427;-91
2023/10/26 05:15:03;;;;;;;1.10;0.90;;;10.40;99.90;;;;;;5055667;28;20033;-90
2023/10/26 05:17:28;;;;;;;1.05;0.95;;;10.40;99.90;;;;;;5044772;28;20171;-90
2023/10/26 05:19:54;;;;;;;2.30;1.65;;;10.40;99.90;;;;;;5038565;28;20021;-92
2023/10/26 05:22:20;;;;;;;1.38;1.25;;;10.40;99.90;;;;;;5028002;28;20021;-91
2023/10/26 05:24:45;;;;;;;2.85;1.33;;;10.40;99.90;;;;;;5029549;28;20026;-91
2023/10/26 05:27:11;;;;;;;1.33;1.23;;;10.30;99.90;;;;;;5029383;28;20033;-90
2023/10/26 05:29:37;;;;;;;4.03;1.17;;;10.30;99.90;;;;;;5029289;28;20053;-91
2023/10/26 05:32:03;;;;;;;1.77;1.20;;;10.90;99.90;;;;;;5044059;28;20080;-92
2023/10/26 05:34:30;;;;;;;1.42;1.33;;;10.80;99.90;;;;;;5040465;28;20033;-91
2023/10/26 05:36:55;;;;;;;1.45;1.15;;;10.70;99.90;;;;;;5046960;28;20156;-91
2023/10/26 05:39:21;;;;;;;2.13;1.92;;;10.50;99.90;;;;;;5031979;28;20089;-91
2023/10/26 05:41:47;;;;;;;3.08;1.50;;;10.50;99.90;;;;;;5029974;28;20018;-88
2023/10/26 05:44:13;;;;;;;3.33;1.70;;;10.50;99.90;;;;;;5028957;28;20025;-90
2023/10/26 05:46:38;;;;;;;2.67;2.47;;;10.40;99.90;;;;;;5031555;28;20035;-90
2023/10/26 05:49:05;;;;;;;2.38;1.25;;;10.40;99.90;;;;;;5032569;28;20108;-89
2023/10/26 05:51:30;;;;;;;2.45;1.20;;;10.40;99.90;;;;;;5033108;28;20080;-91
2023/10/26 05:53:57;;;;;;;1.58;1.15;;;10.30;99.90;;;;;;5045938;28;20630;-91
2023/10/26 05:56:23;;;;;;;2.00;1.33;;;10.30;99.90;;;;;;5033314;28;20087;-89
2023/10/26 05:58:50;;;;;;;2.20;2.00;;;10.30;99.90;;;;;;5032766;28;20029;-92
2023/10/26 06:01:16;;;;;;;3.70;1.23;;;10.30;99.90;;;;;;5028758;28;20061;-92
2023/10/26 06:03:42;;;;;;;1.85;0.98;;;10.30;99.90;;;;;;5030862;28;20445;-91
2023/10/26 06:06:08;;;;;;;2.58;1.02;;;10.30;99.90;;;;;;5045953;28;20072;-91
2023/10/26 06:08:33;;;;;;;3.55;1.73;;;10.30;99.90;;;;;;5028430;28;20424;-91
2023/10/26 06:10:59;;;;;;;3.15;1.77;;;10.30;99.90;;;;;;5030873;28;20025;-90
2023/10/26 06:13:25;;;;;;;3.08;1.00;;;10.30;99.90;;;;;;5044999;28;20040;-90
2023/10/26 06:15:51;;;;;;;2.42;2.10;;;10.40;99.90;;;;;;5028274;28;20033;-91
2023/10/26 06:18:17;;;;;;;2.08;1.42;;;10.40;99.90;;;;;;5044953;28;20033;-92
2023/10/26 06:20:42;;;;;;;6.05;1.77;;;10.40;99.90;;;;;;5030763;28;20033;-90
2023/10/26 06:23:09;;;;;;;3.05;1.38;;;10.40;99.90;;;;;;5031851;28;20098;-91
2023/10/26 06:25:40;;;;;;;2.90;1.98;;;10.40;99.90;;;;;;5049522;28;20044;-90
2023/10/26 06:28:06;;;;;;;3.50;1.23;;;10.40;99.90;;;;;;5032800;28;20107;-89
2023/10/26 06:30:32;;;;;;;2.28;0.90;;;10.50;99.90;;;;;;5043511;28;20681;-89
2023/10/26 06:33:00;;;;;;;3.80;2.38;;;10.50;99.90;;;;;;5030099;28;20040;-90
2023/10/26 06:35:26;;;;;;;2.50;1.83;;;10.50;99.90;;;;;;5029353;28;20052;-91
2023/10/26 06:37:51;;;;;;;1.75;1.65;;;10.60;99.90;;;;;;5032910;28;20049;-90
2023/10/26 06:40:17;;;;;;;3.63;1.45;;;10.60;99.90;;;;;;5045935;28;20029;-93
2023/10/26 06:42:43;;;;;;;1.77;1.20;;;10.60;99.90;;;;;;5045294;28;20040;-91
2023/10/26 06:45:09;;;;;;;1.90;1.08;;;10.60;99.90;;;;;;5043903;28;20112;-93
2023/10/26 06:47:34;;;;;;;2.83;1.83;;;10.70;99.90;;;;;;5048270;28;20067;-93
2023/10/26 06:50:00;;;;;;;3.05;1.33;;;10.70;99.90;;;;;;5049212;28;20037;-89
2023/10/26 06:52:26;;;;;;;3.10;1.30;;;10.70;99.90;;;;;;5035362;28;20052;-89
2023/10/26 06:54:51;;;;;;;1.92;0.95;;;10.70;99.90;;;;;;5049821;28;20025;-89
2023/10/26 06:57:17;;;;;;;4.85;1.38;;;10.80;99.90;;;;;;5043172;28;20511;-90
2023/10/26 06:59:43;;;;;;;2.92;1.70;;;10.80;99.90;;;;;;5050534;28;20018;-93
2023/10/26 07:02:10;;;;;;;2.45;1.90;;;10.80;99.90;;;;;;5037730;28;20040;-91
2023/10/26 07:04:36;;;;;;;2.92;2.53;;;10.90;99.90;;;;;;5041986;28;20056;-90
2023/10/26 07:07:02;;;;;;;4.35;2.90;;;10.90;99.90;;;;;;5038527;28;20491;-89
2023/10/26 07:09:29;;;;;;;2.90;2.60;;;10.90;99.90;;;;;;5052823;28;20025;-91
2023/10/26 07:11:55;;;;;;;2.05;1.67;;;10.90;99.90;;;;;;5048651;28;20029;-88
2023/10/26 07:14:21;;;;;;;5.85;2.33;;;11.00;99.90;;;;;;5031556;28;20026;-89
2023/10/26 07:16:48;;;;;;;3.83;2.88;;;11.00;99.90;;;;;;5034186;28;20094;-90
2023/10/26 07:19:13;;;;;;;3.85;2.00;;;11.00;99.90;;;;;;5030737;28;20587;-90
2023/10/26 07:21:39;;;;;;;3.50;1.92;;;11.00;99.90;;;;;;5035798;28;20108;-90
2023/10/26 07:24:05;;;;;;;2.15;1.65;;;11.00;99.90;;;;;;5037218;28;20416;-91
2023/10/26 07:26:34;;;;;;;2.08;1.58;;;11.10;99.90;;;;;;5026629;28;20514;-88
2023/10/26 07:29:00;;;;;;;2.15;1.45;;;11.10;99.90;;;;;;5033893;28;20495;-90
2023/10/26 07:31:26;;;;;;;2.85;1.95;;;11.10;99.90;;;;;;5032343;28;20030;-89
2023/10/26 07:33:52;;;;;;;3.72;2.35;;;11.10;99.90;;;;;;5035072;28;20017;-92
2023/10/26 07:36:18;;;;;;;1.95;1.70;;;11.20;99.90;;;;;;5035220;28;20040;-89
2023/10/26 07:38:44;;;;;;;2.60;1.98;;;11.20;99.90;;;;;;5032250;28;20040;-89
2023/10/26 07:41:10;;;;;;;3.75;2.15;;;11.30;99.90;;;;;;5030299;28;20042;-92
2023/10/26 07:43:36;;;;;;;2.38;2.17;;;11.30;99.90;;;;;;5034556;28;20029;-90
2023/10/26 07:46:02;;;;;;;5.22;2.38;;;11.40;99.90;;;;;;5032710;28;20033;-90
2023/10/26 07:48:28;;;;;;;3.28;2.08;;;11.40;99.90;;;;;;5032204;28;20793;-90
2023/10/26 07:50:55;;;;;;;3.88;1.48;;;11.50;99.90;;;;;;5033729;28;20048;-90
2023/10/26 07:53:20;;;;;;;2.33;1.67;;;11.50;99.90;;;;;;5033657;28;20103;-90
2023/10/26 07:55:46;;;;;;;2.72;1.95;;;11.50;99.90;;;;;;5049388;28;20029;-89
2023/10/26 07:58:12;;;;;;;2.58;2.28;;;11.60;99.90;;;;;;5049140;28;20376;-90
2023/10/26 08:00:38;;;;;;;2.58;2.00;;;11.70;99.90;;;;;;5048191;28;20032;-90
2023/10/26 08:03:04;;;;;;;3.47;2.08;;;11.70;99.90;;;;;;5033330;28;20112;-88
2023/10/26 08:05:30;;;;;;;2.42;1.70;;;11.70;99.90;;;;;;5048650;28;20021;-88
2023/10/26 08:07:56;;;;;;;2.30;1.65;;;11.80;99.90;;;;;;5029805;28;20088;-89
2023/10/26 08:10:23;;;;;;;4.03;1.48;;;11.80;99.90;;;;;;5030960;28;20029;-91
2023/10/26 08:12:52;;;;;;;2.60;1.83;;;11.80;99.90;;;;;;5034759;28;20034;-89
2023/10/26 08:15:20;;;;;;;2.78;1.98;;;11.80;99.90;;;;;;5035113;28;20488;-89
2023/10/26 08:17:46;;;;;;;3.00;1.85;;;11.90;99.90;;;;;;5048925;28;20516;-90
2023/10/26 08:20:12;;;;;;;3.75;1.83;;;11.80;99.90;;;;;;5032952;28;20102;-91
2023/10/26 08:22:37;;;;;;;2.30;1.80;;;11.90;99.90;;;;;;5033180;28;20488;-91
2023/10/26 08:25:04;;;;;;;1.77;1.50;;;11.90;99.90;;;;;;5048884;28;20029;-89
2023/10/26 08:27:29;;;;;;;4.32;2.75;;;12.00;99.90;;;;;;5045422;28;20103;-91
2023/10/26 08:29:55;;;;;;;3.10;2.05;;;12.00;99.90;;;;;;5032515;28;20561;-92
2023/10/26 08:32:21;;;;;;;2.75;1.55;;;12.00;99.90;;;;;;5045817;28;20025;-90
2023/10/26 08:34:47;;;;;;;2.20;1.73;;;12.00;99.90;;;;;;5045671;28;20411;-90
2023/10/26 08:37:13;;;;;;;4.28;1.70;;;11.90;99.90;;;;;;5048923;28;20056;-90
2023/10/26 08:39:39;;;;;;;2.80;1.63;;;11.90;99.90;;;;;;5048306;28;20407;-89
2023/10/26 08:42:05;;;;;;;3.55;1.50;;;11.90;99.90;;;;;;5032012;28;20037;-89
2023/10/26 08:44:32;;;;;;;3.58;1.80;;;11.80;99.90;;;;;;5033162;28;20025;-91
2023/10/26 08:47:00;;;;;;;2.88;2.03;;;11.80;99.90;;;;;;5047995;28;20021;-88
2023/10/26 08:49:30;;;;;;;2.70;1.70;;;11.70;99.90;;;;;;5029340;28;20036;-89
2023/10/26 08:51:56;;;;;;;3.35;1.77;;;11.70;99.90;;;;;;5037376;28;20034;-91
2023/10/26 08:54:22;;;;;;;4.43;2.55;;;11.80;99.90;;;;;;5042194;28;20034;-91
2023/10/26 08:56:48;;;;;;;3.25;1.67;;;11.80;99.90;;;;;;5029151;28;20053;-91
2023/10/26 08:59:14;;;;;;;4.22;2.47;;;11.80;99.90;;;;;;5028614;28;20053;-90
2023/10/26 09:01:44;;;;;;;3.97;1.90;;;11.70;99.90;;;;;;5018383;28;20706;-91
2023/10/26 09:04:13;;;;;;;2.47;2.00;;;11.70;99.90;;;;;;5034765;28;20026;-93
2023/10/26 09:06:47;;;;;;;4.05;2.45;;;11.70;99.90;;;;;;5031561;28;20048;-91
2023/10/26 09:09:13;;;;;;;4.63;2.45;;;11.60;99.90;;;;;;5053156;28;20055;-91
2023/10/26 09:11:39;;;;;;;3.47;1.40;;;11.70;99.90;;;;;;5038561;28;20018;-91
2023/10/26 09:14:19;;;;;;;3.55;2.30;;;11.60;99.90;;;;;;5038798;28;20033;-91
2023/10/26 09:16:45;;;;;;;3.38;1.95;;;11.60;99.90;;;;;;5038740;28;20018;-91
2023/10/26 09:19:12;;;;;;;5.50;2.33;;;11.60;99.90;;;;;;5022412;28;20112;-91
2023/10/26 09:21:52;;;;;;;5.97;2.22;;;11.70;99.90;;;;;;5038908;28;20022;-91
2023/10/26 09:24:20;;;;;;;3.90;2.35;;;11.70;99.90;;;;;;5038857;28;20017;-92
2023/10/26 09:26:46;;;;;;;3.60;2.22;;;11.80;99.90;;;;;;5038487;28;20029;-88
2023/10/26 09:29:12;;;;;;;3.67;2.60;;;11.80;99.90;;;;;;5035472;28;20387;-92
2023/10/26 09:31:54;;;;;;;3.70;2.67;;;11.90;99.90;;;;;;5039153;28;20070;-92
2023/10/26 09:34:26;;;;;;;4.97;3.00;;;11.90;99.90;;;;;;5036690;28;20072;-91
2023/10/26 09:36:58;;;;;;;5.25;2.63;;;11.90;99.90;;;;;;5025114;28;20017;-92
2023/10/26 09:39:28;;;;;;;4.10;3.42;;;11.90;99.90;;;;;;5027479;28;20109;-92
2023/10/26 09:41:55;;;;;;;4.05;2.88;;;12.00;99.90;;;;;;5048863;28;20025;-91
2023/10/26 09:44:21;;;;;;;4.10;3.03;;;12.00;99.90;;;;;;5038117;28;20028;-92
2023/10/26 09:46:47;;;;;;;5.25;2.53;;;12.10;99.90;;;;;;5038623;28;20418;-93
2023/10/26 09:49:13;;;;;;;3.55;2.83;;;12.10;99.90;;;;;;5036274;28;20041;-92
2023/10/26 09:51:39;;;;;;;3.85;2.42;;;12.20;99.90;;;;;;5033774;28;20444;-91
2023/10/26 09:54:08;;;;;;;5.25;3.85;;;12.20;99.90;;;;;;5037773;28;20013;-92
2023/10/26 09:56:36;;;;;;;4.78;4.13;;;12.10;99.90;;;;;;5036321;28;20109;-92
2023/10/26 09:59:03;;;;;;;7.50;4.43;;;12.10;99.90;;;;;;5035732;28;20075;-91
2023/10/26 10:01:40;;;;;;;5.18;3.88;;;12.10;99.90;;;;;;5054035;28;20049;-92
2023/10/26 10:04:06;;;;;;;5.13;4.35;;;12.20;99.90;;;;;;5038576;28;20526;-91
2023/10/26 10:06:50;;;;;;;6.03;3.35;;;12.10;99.90;;;;;;5037535;28;20075;-92
2023/10/26 10:09:24;;;;;;;6.43;3.47;;;12.10;99.90;;;;;;5038562;28;20123;-92
2023/10/26 10:12:05;;;;;;;5.07;3.30;;;12.20;99.90;;;;;;5039770;28;20037;-92
2023/10/26 10:14:54;;;;;;;4.75;3.05;;;12.10;99.90;;;;;;5019408;28;20026;-91
2023/10/26 10:17:22;;;;;;;5.90;3.10;;;12.10;99.90;;;;;;5018735;28;20057;-93
2023/10/26 10:20:07;;;;;;;3.85;2.10;;;12.10;99.90;;;;;;5032861;28;20018;-92
2023/10/26 10:22:39;;;;;;;3.45;2.15;;;12.20;99.90;;;;;;5044374;28;20028;-92
2023/10/26 10:25:09;;;;;;;3.25;1.88;;;12.10;99.90;;;;;;5052798;28;20434;-92
2023/10/26 10:27:34;;;;;;;3.17;2.35;;;12.10;99.90;;;;;;5026436;28;20030;-93
2023/10/26 10:30:07;;;;;;;2.95;2.22;;;12.10;99.90;;;;;;5037378;28;20029;-92
2023/10/26 10:32:46;;;;;;;4.25;2.35;;;12.20;99.90;;;;;;5037860;28;20040;-91
2023/10/26 10:35:13;;;;;;;4.45;2.63;;;12.00;99.90;;;;;;5037065;28;20021;-93
2023/10/26 10:37:41;;;;;;;5.43;3.45;;;12.10;99.90;;;;;;5037523;28;20021;-92
2023/10/26 10:40:15;;;;;;;3.67;2.50;;;12.00;99.90;;;;;;5028175;28;20050;-93
2023/10/26 10:42:51;;;;;;;4.03;2.15;;;12.00;99.90;;;;;;5031507;28;20022;-92
2023/10/26 10:45:18;;;;;;;4.38;2.75;;;12.10;99.90;;;;;;5037131;28;20032;-91
2023/10/26 10:47:47;;;;;;;4.13;3.25;;;12.10;99.90;;;;;;5051366;28;20022;-91
2023/10/26 10:50:21;;;;;;;3.47;2.83;;;12.20;99.90;;;;;;5032535;28;20399;-92
2023/10/26 10:52:54;;;;;;;2.92;2.30;;;12.20;99.90;;;;;;5046982;28;20032;-92
2023/10/26 10:55:24;;;;;;;2.85;2.53;;;12.20;99.90;;;;;;5035884;28;20029;-91
2023/10/26 10:57:59;;;;;;;4.35;1.65;;;12.30;99.90;;;;;;5035318;28;20083;-91
2023/10/26 11:00:48;;;;;;;3.53;2.60;;;12.30;99.90;;;;;;5037423;28;20025;-91
2023/10/26 11:03:21;;;;;;;3.40;2.10;;;12.30;99.90;;;;;;5036622;28;20068;-92
2023/10/26 11:05:47;;;;;;;3.08;2.35;;;12.50;99.90;;;;;;5025219;28;20018;-92
2023/10/26 11:08:14;;;;;;;3.20;2.15;;;12.60;99.90;;;;;;5035841;28;20017;-92
2023/10/26 11:10:39;;;;;;;4.80;2.50;;;12.80;99.90;;;;;;5039665;28;20032;-92
2023/10/26 11:13:05;;;;;;;6.25;2.25;;;13.00;99.90;;;;;;5038830;28;20021;-93
2023/10/26 11:15:32;;;;;;;3.80;2.25;;;13.10;99.90;;;;;;5033523;28;20125;-92
2023/10/26 11:17:58;;;;;;;2.53;2.08;;;13.30;99.90;;;;;;5032323;28;20648;-92
2023/10/26 11:20:46;;;;;;;2.25;2.00;;;13.30;99.90;;;;;;5015880;28;20022;-92
2023/10/26 11:23:13;;;;;;;4.20;1.63;;;13.30;99.90;;;;;;5034845;28;20034;-92
2023/10/26 11:25:39;;;;;;;3.03;1.80;;;13.30;99.90;;;;;;5037052;28;20021;-92
2023/10/26 11:28:06;;;;;;;2.03;1.70;;;13.20;99.90;;;;;;5036001;28;20403;-91
2023/10/26 11:30:46;;;;;;;2.17;1.98;;;13.20;99.90;;;;;;5034725;28;20025;-93
2023/10/26 11:33:33;;;;;;;8.32;3.88;;;13.20;99.90;;;;;;5019005;28;20030;-93
2023/10/26 11:35:59;;;;;;;4.90;2.55;;;13.20;99.90;;;;;;5016763;28;20037;-93
2023/10/26 11:38:28;;;;;;;4.13;3.08;;;13.30;99.90;;;;;;5017164;28;20041;-92
2023/10/26 11:40:55;;;;;;;4.25;2.47;;;13.30;99.90;;;;;;5034455;28;20057;-94
2023/10/26 11:43:34;;;;;;;3.50;2.67;;;13.40;99.90;;;;;;5027892;28;20038;-91
2023/10/26 11:46:02;;;;;;;6.10;5.45;;;13.50;99.90;;;;;;5023231;28;20018;-91
2023/10/26 11:48:31;;;;;;;4.85;3.65;;;13.70;99.90;;;;;;5038805;28;20025;-91
2023/10/26 11:50:57;;;;;;;4.07;2.45;;;13.90;99.90;;;;;;5014964;28;20025;-92
2023/10/26 11:53:23;;;;;;;4.22;3.20;;;14.10;99.90;;;;;;5048052;28;20029;-91
2023/10/26 11:55:50;;;;;;;7.10;6.40;;;14.10;99.90;;;;;;5033278;28;20040;-90
2023/10/26 11:58:16;;;;;;;3.25;2.55;;;14.40;99.90;;;;;;5034925;28;20454;-91
2023/10/26 12:00:42;;;;;;;9.35;8.63;;;14.60;99.90;;;;;;5036329;28;20083;-91
2023/10/26 12:03:08;;;;;;;5.15;3.40;;;14.70;99.90;;;;;;5035378;28;20026;-90
2023/10/26 12:05:34;;;;;;;2.35;2.03;;;14.60;99.90;;;;;;5032664;28;20026;-91
2023/10/26 12:08:00;;;;;;;3.78;2.03;;;14.50;99.90;;;;;;5014586;28;20034;-91
2023/10/26 12:10:26;;;;;;;4.82;1.92;;;14.60;99.90;;;;;;5043615;28;20026;-91
2023/10/26 12:12:53;;;;;;;2.33;1.88;;;14.90;99.90;;;;;;5033951;28;20089;-89
2023/10/26 12:15:20;;;;;;;7.85;5.75;;;15.10;99.90;;;;;;5051606;28;20026;-91
2023/10/26 12:17:47;;;;;;;2.88;1.88;;;15.20;99.90;;;;;;5037003;28;20035;-91
2023/10/26 12:20:14;;;;;;;6.30;5.70;;;15.20;99.90;;;;;;5046922;28;20021;-91
2023/10/26 12:22:40;;;;;;;2.75;1.73;;;15.50;99.90;;;;;;5019316;28;20049;-90
2023/10/26 12:25:07;;;;;;;2.42;1.80;;;16.20;99.90;;;;;;5033638;28;20026;-89
2023/10/26 12:27:37;;;;;;;2.67;2.47;;;16.60;99.90;;;;;;5034656;28;20026;-91
2023/10/26 12:30:03;;;;;;;2.70;1.48;;;16.90;99.90;;;;;;5033349;28;20053;-90
2023/10/26 12:32:30;;;;;;;3.03;1.70;;;16.90;99.90;;;;;;5038942;28;20038;-89
2023/10/26 12:34:56;;;;;;;2.78;1.88;;;17.30;99.90;;;;;;5039536;28;20021;-91
2023/10/26 12:37:21;;;;;;;2.42;1.65;;;17.70;99.90;;;;;;5043866;28;20033;-90
2023/10/26 12:39:47;;;;;;;3.95;3.53;;;18.00;99.90;;;;;;5053722;28;20018;-91
2023/10/26 12:42:13;;;;;;;1.33;1.02;;;17.80;99.90;;;;;;5039122;28;20021;-91
2023/10/26 12:44:39;;;;;;;2.22;1.42;;;17.60;99.90;;;;;;5038091;28;20044;-91
2023/10/26 12:47:05;;;;;;;3.20;1.55;;;17.90;99.90;;;;;;5038149;28;20025;-90